sensor_id;sensor_type;location;lat;lon;timestamp;P1;durP1;ratioP1;P2;durP2;ratioP2
28070;SDS011;15383;48.408;9.968;2023-08-06T00:01:58;7.40;;;3.75;;
28070;SDS011;15383;48.408;9.968;2023-08-06T00:04:24;6.05;;;3.38;;
28070;SDS011;15383;48.408;9.968;2023-08-06T00:06:49;8.02;;;3.60;;
28070;SDS011;15383;48.408;9.968;2023-08-06T00:09:15;4.65;;;3.13;;
28070;SDS011;15383;48.408;9.968;2023-08-06T00:11:40;7.00;;;3.22;;
28070;SDS011;15383;48.408;9.968;2023-08-06T00:14:08;7.85;;;4.22;;
28070;SDS011;15383;48.408;9.968;2023-08-06T00:16:34;5.60;;;3.92;;
28070;SDS011;15383;48.408;9.968;2023-08-06T00:19:00;5.95;;;3.72;;
28070;SDS011;15383;48.408;9.968;2023-08-06T00:21:26;5.93;;;3.90;;
28070;SDS011;15383;48.408;9.968;2023-08-06T00:23:51;7.30;;;4.50;;
28070;SDS011;15383;48.408;9.968;2023-08-06T00:26:17;6.80;;;4.15;;
28070;SDS011;15383;48.408;9.968;2023-08-06T00:28:42;8.60;;;3.60;;
28070;SDS011;15383;48.408;9.968;2023-08-06T00:31:08;6.72;;;3.65;;
28070;SDS011;15383;48.408;9.968;2023-08-06T00:33:34;4.38;;;3.05;;
28070;SDS011;15383;48.408;9.968;2023-08-06T00:35:59;9.40;;;3.10;;
28070;SDS011;15383;48.408;9.968;2023-08-06T00:38:25;5.20;;;3.30;;
28070;SDS011;15383;48.408;9.968;2023-08-06T00:40:50;9.25;;;3.33;;
28070;SDS011;15383;48.408;9.968;2023-08-06T00:43:16;6.95;;;3.47;;
28070;SDS011;15383;48.408;9.968;2023-08-06T00:45:41;4.40;;;3.00;;
28070;SDS011;15383;48.408;9.968;2023-08-06T00:48:08;5.03;;;2.65;;
28070;SDS011;15383;48.408;9.968;2023-08-06T00:50:33;8.25;;;2.70;;
28070;SDS011;15383;48.408;9.968;2023-08-06T00:52:59;4.03;;;2.92;;
28070;SDS011;15383;48.408;9.968;2023-08-06T00:55:26;2.55;;;2.30;;
28070;SDS011;15383;48.408;9.968;2023-08-06T00:57:51;3.53;;;2.70;;
28070;SDS011;15383;48.408;9.968;2023-08-06T01:00:18;5.85;;;2.70;;
28070;SDS011;15383;48.408;9.968;2023-08-06T01:05:14;5.93;;;3.00;;
28070;SDS011;15383;48.408;9.968;2023-08-06T01:10:33;5.43;;;3.47;;
28070;SDS011;15383;48.408;9.968;2023-08-06T01:13:23;3.97;;;3.00;;
28070;SDS011;15383;48.408;9.968;2023-08-06T01:15:55;3.97;;;2.97;;
28070;SDS011;15383;48.408;9.968;2023-08-06T01:18:23;3.45;;;2.80;;
28070;SDS011;15383;48.408;9.968;2023-08-06T01:20:48;4.18;;;2.83;;
28070;SDS011;15383;48.408;9.968;2023-08-06T01:23:17;3.95;;;2.28;;
28070;SDS011;15383;48.408;9.968;2023-08-06T01:26:05;4.10;;;2.78;;
28070;SDS011;15383;48.408;9.968;2023-08-06T01:31:27;6.20;;;3.30;;
28070;SDS011;15383;48.408;9.968;2023-08-06T01:33:58;3.38;;;2.50;;
28070;SDS011;15383;48.408;9.968;2023-08-06T01:36:24;4.65;;;2.78;;
28070;SDS011;15383;48.408;9.968;2023-08-06T01:38:51;6.65;;;3.05;;
28070;SDS011;15383;48.408;9.968;2023-08-06T01:41:18;5.55;;;3.15;;
28070;SDS011;15383;48.408;9.968;2023-08-06T01:43:46;5.50;;;2.40;;
28070;SDS011;15383;48.408;9.968;2023-08-06T01:46:12;9.15;;;2.42;;
28070;SDS011;15383;48.408;9.968;2023-08-06T01:48:38;3.70;;;2.75;;
28070;SDS011;15383;48.408;9.968;2023-08-06T01:51:04;3.78;;;2.30;;
28070;SDS011;15383;48.408;9.968;2023-08-06T01:53:30;7.00;;;2.47;;
28070;SDS011;15383;48.408;9.968;2023-08-06T01:56:02;6.32;;;2.30;;
28070;SDS011;15383;48.408;9.968;2023-08-06T01:58:28;4.63;;;2.42;;
28070;SDS011;15383;48.408;9.968;2023-08-06T02:00:57;3.03;;;2.40;;
28070;SDS011;15383;48.408;9.968;2023-08-06T02:03:22;6.60;;;2.35;;
28070;SDS011;15383;48.408;9.968;2023-08-06T02:05:48;3.90;;;2.55;;
28070;SDS011;15383;48.408;9.968;2023-08-06T02:08:14;5.82;;;2.47;;
28070;SDS011;15383;48.408;9.968;2023-08-06T02:10:39;7.03;;;2.40;;
28070;SDS011;15383;48.408;9.968;2023-08-06T02:13:06;4.00;;;2.58;;
28070;SDS011;15383;48.408;9.968;2023-08-06T02:15:32;6.43;;;2.88;;
28070;SDS011;15383;48.408;9.968;2023-08-06T02:17:57;2.65;;;2.22;;
28070;SDS011;15383;48.408;9.968;2023-08-06T02:20:23;3.95;;;2.50;;
28070;SDS011;15383;48.408;9.968;2023-08-06T02:22:48;2.90;;;2.53;;
28070;SDS011;15383;48.408;9.968;2023-08-06T02:25:14;3.65;;;2.38;;
28070;SDS011;15383;48.408;9.968;2023-08-06T02:27:40;3.50;;;2.30;;
28070;SDS011;15383;48.408;9.968;2023-08-06T02:30:05;3.75;;;2.13;;
28070;SDS011;15383;48.408;9.968;2023-08-06T02:32:32;4.45;;;2.45;;
28070;SDS011;15383;48.408;9.968;2023-08-06T02:35:00;3.67;;;2.38;;
28070;SDS011;15383;48.408;9.968;2023-08-06T02:37:27;3.70;;;2.40;;
28070;SDS011;15383;48.408;9.968;2023-08-06T02:39:52;2.67;;;2.00;;
28070;SDS011;15383;48.408;9.968;2023-08-06T02:42:18;4.88;;;2.17;;
28070;SDS011;15383;48.408;9.968;2023-08-06T02:44:43;4.63;;;2.58;;
28070;SDS011;15383;48.408;9.968;2023-08-06T02:47:09;3.35;;;2.58;;
28070;SDS011;15383;48.408;9.968;2023-08-06T02:49:35;2.83;;;2.53;;
28070;SDS011;15383;48.408;9.968;2023-08-06T02:52:00;2.60;;;2.28;;
28070;SDS011;15383;48.408;9.968;2023-08-06T02:54:26;3.65;;;2.33;;
28070;SDS011;15383;48.408;9.968;2023-08-06T02:56:51;4.72;;;2.55;;
28070;SDS011;15383;48.408;9.968;2023-08-06T02:59:17;3.22;;;2.22;;
28070;SDS011;15383;48.408;9.968;2023-08-06T03:01:43;5.93;;;2.65;;
28070;SDS011;15383;48.408;9.968;2023-08-06T03:04:08;5.57;;;2.78;;
28070;SDS011;15383;48.408;9.968;2023-08-06T03:06:34;3.97;;;2.28;;
28070;SDS011;15383;48.408;9.968;2023-08-06T03:08:59;4.18;;;2.30;;
28070;SDS011;15383;48.408;9.968;2023-08-06T03:11:25;3.25;;;2.25;;
28070;SDS011;15383;48.408;9.968;2023-08-06T03:13:51;2.65;;;2.17;;
28070;SDS011;15383;48.408;9.968;2023-08-06T03:16:16;5.97;;;2.80;;
28070;SDS011;15383;48.408;9.968;2023-08-06T03:18:42;4.18;;;2.50;;
28070;SDS011;15383;48.408;9.968;2023-08-06T03:21:07;3.28;;;2.28;;
28070;SDS011;15383;48.408;9.968;2023-08-06T03:23:33;4.47;;;2.35;;
28070;SDS011;15383;48.408;9.968;2023-08-06T03:26:02;3.08;;;2.40;;
28070;SDS011;15383;48.408;9.968;2023-08-06T03:28:28;9.23;;;2.20;;
28070;SDS011;15383;48.408;9.968;2023-08-06T03:31:00;6.57;;;2.80;;
28070;SDS011;15383;48.408;9.968;2023-08-06T03:33:29;4.25;;;2.60;;
28070;SDS011;15383;48.408;9.968;2023-08-06T03:35:55;2.78;;;2.13;;
28070;SDS011;15383;48.408;9.968;2023-08-06T03:38:21;4.78;;;2.80;;
28070;SDS011;15383;48.408;9.968;2023-08-06T03:40:48;5.32;;;2.60;;
28070;SDS011;15383;48.408;9.968;2023-08-06T03:43:14;4.28;;;2.53;;
28070;SDS011;15383;48.408;9.968;2023-08-06T03:45:40;6.03;;;2.67;;
28070;SDS011;15383;48.408;9.968;2023-08-06T03:48:06;5.05;;;2.60;;
28070;SDS011;15383;48.408;9.968;2023-08-06T03:50:33;3.88;;;2.40;;
28070;SDS011;15383;48.408;9.968;2023-08-06T03:52:58;2.92;;;2.38;;
28070;SDS011;15383;48.408;9.968;2023-08-06T03:55:24;2.72;;;2.30;;
28070;SDS011;15383;48.408;9.968;2023-08-06T03:57:50;5.43;;;2.45;;
28070;SDS011;15383;48.408;9.968;2023-08-06T04:00:16;3.33;;;2.35;;
28070;SDS011;15383;48.408;9.968;2023-08-06T04:02:42;3.47;;;2.40;;
28070;SDS011;15383;48.408;9.968;2023-08-06T04:05:08;3.65;;;2.72;;
28070;SDS011;15383;48.408;9.968;2023-08-06T04:07:33;4.25;;;3.13;;
28070;SDS011;15383;48.408;9.968;2023-08-06T04:10:00;3.72;;;2.75;;
28070;SDS011;15383;48.408;9.968;2023-08-06T04:12:28;3.53;;;2.55;;
28070;SDS011;15383;48.408;9.968;2023-08-06T04:14:53;6.65;;;2.88;;
28070;SDS011;15383;48.408;9.968;2023-08-06T04:17:20;4.70;;;2.75;;
28070;SDS011;15383;48.408;9.968;2023-08-06T04:19:48;4.43;;;2.95;;
28070;SDS011;15383;48.408;9.968;2023-08-06T04:22:15;4.43;;;2.67;;
28070;SDS011;15383;48.408;9.968;2023-08-06T04:24:41;5.07;;;2.75;;
28070;SDS011;15383;48.408;9.968;2023-08-06T04:27:08;3.58;;;2.22;;
28070;SDS011;15383;48.408;9.968;2023-08-06T04:29:34;4.50;;;2.42;;
28070;SDS011;15383;48.408;9.968;2023-08-06T04:32:00;3.72;;;2.30;;
28070;SDS011;15383;48.408;9.968;2023-08-06T04:34:26;3.70;;;2.28;;
28070;SDS011;15383;48.408;9.968;2023-08-06T04:36:54;4.88;;;2.13;;
28070;SDS011;15383;48.408;9.968;2023-08-06T04:39:20;2.83;;;2.08;;
28070;SDS011;15383;48.408;9.968;2023-08-06T04:41:46;2.65;;;2.17;;
28070;SDS011;15383;48.408;9.968;2023-08-06T04:44:11;2.83;;;1.80;;
28070;SDS011;15383;48.408;9.968;2023-08-06T04:46:37;2.45;;;1.90;;
28070;SDS011;15383;48.408;9.968;2023-08-06T04:49:02;8.20;;;2.33;;
28070;SDS011;15383;48.408;9.968;2023-08-06T04:51:28;3.72;;;2.22;;
28070;SDS011;15383;48.408;9.968;2023-08-06T04:53:53;2.30;;;2.00;;
28070;SDS011;15383;48.408;9.968;2023-08-06T04:56:19;2.90;;;1.98;;
28070;SDS011;15383;48.408;9.968;2023-08-06T04:58:45;2.38;;;1.55;;
28070;SDS011;15383;48.408;9.968;2023-08-06T05:01:10;5.10;;;2.13;;
28070;SDS011;15383;48.408;9.968;2023-08-06T05:03:36;4.82;;;1.95;;
28070;SDS011;15383;48.408;9.968;2023-08-06T05:06:01;2.17;;;1.83;;
28070;SDS011;15383;48.408;9.968;2023-08-06T05:08:27;7.22;;;1.92;;
28070;SDS011;15383;48.408;9.968;2023-08-06T05:10:52;7.32;;;1.85;;
28070;SDS011;15383;48.408;9.968;2023-08-06T05:13:18;2.70;;;1.73;;
28070;SDS011;15383;48.408;9.968;2023-08-06T05:15:44;3.50;;;2.00;;
28070;SDS011;15383;48.408;9.968;2023-08-06T05:18:11;2.63;;;1.80;;
28070;SDS011;15383;48.408;9.968;2023-08-06T05:20:37;9.23;;;1.92;;
28070;SDS011;15383;48.408;9.968;2023-08-06T05:23:04;6.57;;;2.17;;
28070;SDS011;15383;48.408;9.968;2023-08-06T05:25:30;6.40;;;2.05;;
28070;SDS011;15383;48.408;9.968;2023-08-06T05:27:55;5.00;;;1.80;;
28070;SDS011;15383;48.408;9.968;2023-08-06T05:30:21;2.92;;;1.75;;
28070;SDS011;15383;48.408;9.968;2023-08-06T05:32:47;4.88;;;2.17;;
28070;SDS011;15383;48.408;9.968;2023-08-06T05:35:12;6.15;;;2.00;;
28070;SDS011;15383;48.408;9.968;2023-08-06T05:37:38;5.95;;;1.70;;
28070;SDS011;15383;48.408;9.968;2023-08-06T05:40:04;3.38;;;2.05;;
28070;SDS011;15383;48.408;9.968;2023-08-06T05:42:30;3.58;;;1.85;;
28070;SDS011;15383;48.408;9.968;2023-08-06T05:44:55;6.43;;;2.05;;
28070;SDS011;15383;48.408;9.968;2023-08-06T05:47:21;3.03;;;1.90;;
28070;SDS011;15383;48.408;9.968;2023-08-06T05:49:47;2.17;;;1.67;;
28070;SDS011;15383;48.408;9.968;2023-08-06T05:52:12;2.17;;;1.40;;
28070;SDS011;15383;48.408;9.968;2023-08-06T05:54:38;2.72;;;1.83;;
28070;SDS011;15383;48.408;9.968;2023-08-06T05:57:05;3.45;;;1.60;;
28070;SDS011;15383;48.408;9.968;2023-08-06T05:59:31;3.75;;;1.73;;
28070;SDS011;15383;48.408;9.968;2023-08-06T06:01:57;2.50;;;1.48;;
28070;SDS011;15383;48.408;9.968;2023-08-06T06:04:22;2.60;;;1.75;;
28070;SDS011;15383;48.408;9.968;2023-08-06T06:06:48;12.05;;;2.42;;
28070;SDS011;15383;48.408;9.968;2023-08-06T06:09:13;3.15;;;1.85;;
28070;SDS011;15383;48.408;9.968;2023-08-06T06:11:39;2.50;;;1.52;;
28070;SDS011;15383;48.408;9.968;2023-08-06T06:14:04;2.28;;;1.70;;
28070;SDS011;15383;48.408;9.968;2023-08-06T06:16:30;4.38;;;1.98;;
28070;SDS011;15383;48.408;9.968;2023-08-06T06:18:56;1.45;;;1.33;;
28070;SDS011;15383;48.408;9.968;2023-08-06T06:21:22;6.85;;;1.95;;
28070;SDS011;15383;48.408;9.968;2023-08-06T06:23:49;1.73;;;1.05;;
28070;SDS011;15383;48.408;9.968;2023-08-06T06:26:16;2.53;;;1.30;;
28070;SDS011;15383;48.408;9.968;2023-08-06T06:28:44;2.83;;;1.75;;
28070;SDS011;15383;48.408;9.968;2023-08-06T06:31:10;1.83;;;1.20;;
28070;SDS011;15383;48.408;9.968;2023-08-06T06:33:36;4.20;;;1.20;;
28070;SDS011;15383;48.408;9.968;2023-08-06T06:36:01;2.25;;;1.30;;
28070;SDS011;15383;48.408;9.968;2023-08-06T06:38:28;2.75;;;1.30;;
28070;SDS011;15383;48.408;9.968;2023-08-06T06:40:55;2.25;;;1.63;;
28070;SDS011;15383;48.408;9.968;2023-08-06T06:43:23;2.97;;;1.40;;
28070;SDS011;15383;48.408;9.968;2023-08-06T06:45:56;1.30;;;1.20;;
28070;SDS011;15383;48.408;9.968;2023-08-06T06:48:23;1.63;;;0.88;;
28070;SDS011;15383;48.408;9.968;2023-08-06T06:50:49;2.35;;;1.30;;
28070;SDS011;15383;48.408;9.968;2023-08-06T06:53:15;1.27;;;1.17;;
28070;SDS011;15383;48.408;9.968;2023-08-06T06:55:40;2.65;;;1.20;;
28070;SDS011;15383;48.408;9.968;2023-08-06T06:58:06;4.65;;;1.10;;
28070;SDS011;15383;48.408;9.968;2023-08-06T07:00:31;1.63;;;1.20;;
28070;SDS011;15383;48.408;9.968;2023-08-06T07:02:57;3.63;;;1.50;;
28070;SDS011;15383;48.408;9.968;2023-08-06T07:05:23;2.20;;;1.17;;
28070;SDS011;15383;48.408;9.968;2023-08-06T07:07:48;1.65;;;1.15;;
28070;SDS011;15383;48.408;9.968;2023-08-06T07:10:14;1.00;;;0.80;;
28070;SDS011;15383;48.408;9.968;2023-08-06T07:12:39;2.05;;;1.30;;
28070;SDS011;15383;48.408;9.968;2023-08-06T07:15:08;1.98;;;1.00;;
28070;SDS011;15383;48.408;9.968;2023-08-06T07:17:34;1.27;;;0.90;;
28070;SDS011;15383;48.408;9.968;2023-08-06T07:19:59;1.42;;;1.00;;
28070;SDS011;15383;48.408;9.968;2023-08-06T07:22:25;1.73;;;1.23;;
28070;SDS011;15383;48.408;9.968;2023-08-06T07:24:50;1.95;;;1.05;;
28070;SDS011;15383;48.408;9.968;2023-08-06T07:27:16;2.22;;;1.25;;
28070;SDS011;15383;48.408;9.968;2023-08-06T07:29:42;1.20;;;0.90;;
28070;SDS011;15383;48.408;9.968;2023-08-06T07:32:07;2.10;;;1.08;;
28070;SDS011;15383;48.408;9.968;2023-08-06T07:34:33;2.05;;;1.10;;
28070;SDS011;15383;48.408;9.968;2023-08-06T07:36:58;1.13;;;0.75;;
28070;SDS011;15383;48.408;9.968;2023-08-06T07:39:24;1.13;;;1.00;;
28070;SDS011;15383;48.408;9.968;2023-08-06T07:41:50;1.55;;;1.10;;
28070;SDS011;15383;48.408;9.968;2023-08-06T07:44:16;3.70;;;0.60;;
28070;SDS011;15383;48.408;9.968;2023-08-06T07:46:41;1.40;;;0.93;;
28070;SDS011;15383;48.408;9.968;2023-08-06T07:49:07;2.08;;;0.50;;
28070;SDS011;15383;48.408;9.968;2023-08-06T07:51:33;0.63;;;0.63;;
28070;SDS011;15383;48.408;9.968;2023-08-06T07:53:58;0.85;;;0.50;;
28070;SDS011;15383;48.408;9.968;2023-08-06T07:56:24;0.47;;;0.47;;
28070;SDS011;15383;48.408;9.968;2023-08-06T07:58:50;0.40;;;0.40;;
28070;SDS011;15383;48.408;9.968;2023-08-06T08:01:15;0.95;;;0.65;;
28070;SDS011;15383;48.408;9.968;2023-08-06T08:03:41;1.67;;;0.50;;
28070;SDS011;15383;48.408;9.968;2023-08-06T08:06:06;0.50;;;0.50;;
28070;SDS011;15383;48.408;9.968;2023-08-06T08:08:32;0.43;;;0.43;;
28070;SDS011;15383;48.408;9.968;2023-08-06T08:11:00;0.82;;;0.60;;
28070;SDS011;15383;48.408;9.968;2023-08-06T08:13:27;0.45;;;0.45;;
28070;SDS011;15383;48.408;9.968;2023-08-06T08:15:56;0.40;;;0.40;;
28070;SDS011;15383;48.408;9.968;2023-08-06T08:18:23;0.70;;;0.30;;
28070;SDS011;15383;48.408;9.968;2023-08-06T08:20:49;0.60;;;0.60;;
28070;SDS011;15383;48.408;9.968;2023-08-06T08:23:15;0.93;;;0.52;;
28070;SDS011;15383;48.408;9.968;2023-08-06T08:25:43;5.40;;;0.50;;
28070;SDS011;15383;48.408;9.968;2023-08-06T08:28:09;2.75;;;0.60;;
28070;SDS011;15383;48.408;9.968;2023-08-06T08:30:40;1.13;;;0.50;;
28070;SDS011;15383;48.408;9.968;2023-08-06T08:33:06;0.50;;;0.50;;
28070;SDS011;15383;48.408;9.968;2023-08-06T08:35:33;2.55;;;0.75;;
28070;SDS011;15383;48.408;9.968;2023-08-06T08:37:59;0.73;;;0.60;;
28070;SDS011;15383;48.408;9.968;2023-08-06T08:40:27;0.63;;;0.50;;
28070;SDS011;15383;48.408;9.968;2023-08-06T08:42:59;0.50;;;0.50;;
28070;SDS011;15383;48.408;9.968;2023-08-06T08:45:26;0.30;;;0.30;;
28070;SDS011;15383;48.408;9.968;2023-08-06T08:47:54;0.45;;;0.45;;
28070;SDS011;15383;48.408;9.968;2023-08-06T08:50:20;0.30;;;0.30;;
28070;SDS011;15383;48.408;9.968;2023-08-06T08:52:54;0.40;;;0.40;;
28070;SDS011;15383;48.408;9.968;2023-08-06T08:55:20;0.30;;;0.30;;
28070;SDS011;15383;48.408;9.968;2023-08-06T08:57:50;0.40;;;0.40;;
28070;SDS011;15383;48.408;9.968;2023-08-06T09:00:16;0.63;;;0.45;;
28070;SDS011;15383;48.408;9.968;2023-08-06T09:02:42;0.50;;;0.50;;
28070;SDS011;15383;48.408;9.968;2023-08-06T09:05:10;0.40;;;0.40;;
28070;SDS011;15383;48.408;9.968;2023-08-06T09:07:48;0.60;;;0.60;;
28070;SDS011;15383;48.408;9.968;2023-08-06T09:10:14;0.40;;;0.40;;
28070;SDS011;15383;48.408;9.968;2023-08-06T09:12:43;3.10;;;0.50;;
28070;SDS011;15383;48.408;9.968;2023-08-06T09:15:09;0.40;;;0.40;;
28070;SDS011;15383;48.408;9.968;2023-08-06T09:17:37;0.40;;;0.40;;
28070;SDS011;15383;48.408;9.968;2023-08-06T09:20:26;3.50;;;0.40;;
28070;SDS011;15383;48.408;9.968;2023-08-06T09:22:52;0.40;;;0.40;;
28070;SDS011;15383;48.408;9.968;2023-08-06T09:25:22;0.40;;;0.40;;
28070;SDS011;15383;48.408;9.968;2023-08-06T09:27:50;0.95;;;0.45;;
28070;SDS011;15383;48.408;9.968;2023-08-06T09:30:37;0.65;;;0.43;;
28070;SDS011;15383;48.408;9.968;2023-08-06T09:33:03;0.40;;;0.40;;
28070;SDS011;15383;48.408;9.968;2023-08-06T09:35:35;4.28;;;0.73;;
28070;SDS011;15383;48.408;9.968;2023-08-06T09:38:08;0.30;;;0.30;;
28070;SDS011;15383;48.408;9.968;2023-08-06T09:40:35;0.32;;;0.32;;
28070;SDS011;15383;48.408;9.968;2023-08-06T09:43:01;0.65;;;0.30;;
28070;SDS011;15383;48.408;9.968;2023-08-06T09:45:34;0.80;;;0.43;;
28070;SDS011;15383;48.408;9.968;2023-08-06T09:48:08;4.30;;;0.40;;
28070;SDS011;15383;48.408;9.968;2023-08-06T09:50:35;0.25;;;0.25;;
28070;SDS011;15383;48.408;9.968;2023-08-06T09:53:04;2.17;;;0.57;;
28070;SDS011;15383;48.408;9.968;2023-08-06T09:55:31;0.40;;;0.40;;
28070;SDS011;15383;48.408;9.968;2023-08-06T09:57:58;0.30;;;0.30;;
28070;SDS011;15383;48.408;9.968;2023-08-06T10:00:24;0.38;;;0.38;;
28070;SDS011;15383;48.408;9.968;2023-08-06T10:02:51;0.40;;;0.40;;
28070;SDS011;15383;48.408;9.968;2023-08-06T10:05:21;0.40;;;0.40;;
28070;SDS011;15383;48.408;9.968;2023-08-06T10:07:51;0.75;;;0.43;;
28070;SDS011;15383;48.408;9.968;2023-08-06T10:15:48;0.40;;;0.40;;
28070;SDS011;15383;48.408;9.968;2023-08-06T10:18:16;0.30;;;0.30;;
28070;SDS011;15383;48.408;9.968;2023-08-06T10:23:58;0.40;;;0.40;;
28070;SDS011;15383;48.408;9.968;2023-08-06T10:32:02;0.50;;;0.50;;
28070;SDS011;15383;48.408;9.968;2023-08-06T10:37:23;0.40;;;0.40;;
28070;SDS011;15383;48.408;9.968;2023-08-06T10:39:59;0.32;;;0.32;;
28070;SDS011;15383;48.408;9.968;2023-08-06T10:42:28;2.35;;;0.50;;
28070;SDS011;15383;48.408;9.968;2023-08-06T10:48:01;0.30;;;0.30;;
28070;SDS011;15383;48.408;9.968;2023-08-06T10:50:27;0.50;;;0.50;;
28070;SDS011;15383;48.408;9.968;2023-08-06T10:52:52;0.40;;;0.40;;
28070;SDS011;15383;48.408;9.968;2023-08-06T10:55:22;0.30;;;0.30;;
28070;SDS011;15383;48.408;9.968;2023-08-06T10:57:49;0.75;;;0.40;;
28070;SDS011;15383;48.408;9.968;2023-08-06T11:00:15;0.65;;;0.40;;
28070;SDS011;15383;48.408;9.968;2023-08-06T11:02:41;0.40;;;0.40;;
28070;SDS011;15383;48.408;9.968;2023-08-06T11:05:10;0.40;;;0.40;;
28070;SDS011;15383;48.408;9.968;2023-08-06T11:07:45;0.40;;;0.40;;
28070;SDS011;15383;48.408;9.968;2023-08-06T11:10:17;1.13;;;0.80;;
28070;SDS011;15383;48.408;9.968;2023-08-06T11:12:46;0.43;;;0.43;;
28070;SDS011;15383;48.408;9.968;2023-08-06T11:15:19;0.40;;;0.40;;
28070;SDS011;15383;48.408;9.968;2023-08-06T11:17:45;0.47;;;0.47;;
28070;SDS011;15383;48.408;9.968;2023-08-06T11:20:12;0.70;;;0.38;;
28070;SDS011;15383;48.408;9.968;2023-08-06T11:22:38;0.50;;;0.40;;
28070;SDS011;15383;48.408;9.968;2023-08-06T11:25:05;0.60;;;0.50;;
28070;SDS011;15383;48.408;9.968;2023-08-06T11:27:32;0.55;;;0.50;;
28070;SDS011;15383;48.408;9.968;2023-08-06T11:29:57;0.40;;;0.40;;
28070;SDS011;15383;48.408;9.968;2023-08-06T11:32:23;0.30;;;0.30;;
28070;SDS011;15383;48.408;9.968;2023-08-06T11:34:49;0.55;;;0.52;;
28070;SDS011;15383;48.408;9.968;2023-08-06T11:37:15;1.98;;;0.60;;
28070;SDS011;15383;48.408;9.968;2023-08-06T11:39:44;0.30;;;0.30;;
28070;SDS011;15383;48.408;9.968;2023-08-06T11:42:13;0.30;;;0.30;;
28070;SDS011;15383;48.408;9.968;2023-08-06T11:44:40;0.40;;;0.40;;
28070;SDS011;15383;48.408;9.968;2023-08-06T11:47:11;0.57;;;0.30;;
28070;SDS011;15383;48.408;9.968;2023-08-06T11:49:51;0.30;;;0.30;;
28070;SDS011;15383;48.408;9.968;2023-08-06T11:52:17;0.40;;;0.40;;
28070;SDS011;15383;48.408;9.968;2023-08-06T11:57:31;0.82;;;0.43;;
28070;SDS011;15383;48.408;9.968;2023-08-06T12:00:04;4.03;;;1.17;;
28070;SDS011;15383;48.408;9.968;2023-08-06T12:02:33;0.57;;;0.57;;
28070;SDS011;15383;48.408;9.968;2023-08-06T12:07:28;0.40;;;0.40;;
28070;SDS011;15383;48.408;9.968;2023-08-06T12:09:55;1.75;;;0.30;;
28070;SDS011;15383;48.408;9.968;2023-08-06T12:12:21;0.43;;;0.43;;
28070;SDS011;15383;48.408;9.968;2023-08-06T12:14:48;0.40;;;0.40;;
28070;SDS011;15383;48.408;9.968;2023-08-06T12:17:16;0.43;;;0.43;;
28070;SDS011;15383;48.408;9.968;2023-08-06T12:20:20;0.30;;;0.30;;
28070;SDS011;15383;48.408;9.968;2023-08-06T12:22:46;0.40;;;0.40;;
28070;SDS011;15383;48.408;9.968;2023-08-06T12:25:21;0.40;;;0.40;;
28070;SDS011;15383;48.408;9.968;2023-08-06T12:28:14;0.40;;;0.40;;
28070;SDS011;15383;48.408;9.968;2023-08-06T12:30:51;0.47;;;0.47;;
28070;SDS011;15383;48.408;9.968;2023-08-06T12:33:27;2.10;;;0.38;;
28070;SDS011;15383;48.408;9.968;2023-08-06T12:36:11;3.65;;;0.55;;
28070;SDS011;15383;48.408;9.968;2023-08-06T12:38:53;0.47;;;0.43;;
28070;SDS011;15383;48.408;9.968;2023-08-06T12:41:23;2.22;;;0.88;;
28070;SDS011;15383;48.408;9.968;2023-08-06T12:43:49;1.38;;;0.50;;
28070;SDS011;15383;48.408;9.968;2023-08-06T12:46:15;0.82;;;0.50;;
28070;SDS011;15383;48.408;9.968;2023-08-06T12:48:40;1.00;;;0.57;;
28070;SDS011;15383;48.408;9.968;2023-08-06T12:51:06;1.75;;;0.68;;
28070;SDS011;15383;48.408;9.968;2023-08-06T12:53:32;0.55;;;0.40;;
28070;SDS011;15383;48.408;9.968;2023-08-06T12:55:57;0.65;;;0.30;;
28070;SDS011;15383;48.408;9.968;2023-08-06T12:58:23;0.85;;;0.47;;
28070;SDS011;15383;48.408;9.968;2023-08-06T13:00:48;1.02;;;0.60;;
28070;SDS011;15383;48.408;9.968;2023-08-06T13:03:14;0.40;;;0.40;;
28070;SDS011;15383;48.408;9.968;2023-08-06T13:05:40;0.30;;;0.30;;
28070;SDS011;15383;48.408;9.968;2023-08-06T13:08:05;0.38;;;0.38;;
28070;SDS011;15383;48.408;9.968;2023-08-06T13:10:31;0.40;;;0.40;;
28070;SDS011;15383;48.408;9.968;2023-08-06T13:12:56;0.40;;;0.40;;
28070;SDS011;15383;48.408;9.968;2023-08-06T13:15:22;2.78;;;0.63;;
28070;SDS011;15383;48.408;9.968;2023-08-06T13:17:48;0.38;;;0.38;;
28070;SDS011;15383;48.408;9.968;2023-08-06T13:20:16;0.50;;;0.50;;
28070;SDS011;15383;48.408;9.968;2023-08-06T13:22:44;0.50;;;0.50;;
28070;SDS011;15383;48.408;9.968;2023-08-06T13:25:14;0.40;;;0.40;;
28070;SDS011;15383;48.408;9.968;2023-08-06T13:27:41;3.47;;;0.70;;
28070;SDS011;15383;48.408;9.968;2023-08-06T13:30:11;1.27;;;0.60;;
28070;SDS011;15383;48.408;9.968;2023-08-06T13:32:37;3.40;;;0.77;;
28070;SDS011;15383;48.408;9.968;2023-08-06T13:35:03;0.60;;;0.60;;
28070;SDS011;15383;48.408;9.968;2023-08-06T13:37:29;0.68;;;0.68;;
28070;SDS011;15383;48.408;9.968;2023-08-06T13:39:55;2.83;;;0.60;;
28070;SDS011;15383;48.408;9.968;2023-08-06T13:42:21;0.50;;;0.50;;
28070;SDS011;15383;48.408;9.968;2023-08-06T13:44:47;0.60;;;0.60;;
28070;SDS011;15383;48.408;9.968;2023-08-06T13:47:13;4.32;;;0.60;;
28070;SDS011;15383;48.408;9.968;2023-08-06T13:49:38;0.60;;;0.60;;
28070;SDS011;15383;48.408;9.968;2023-08-06T13:52:04;0.73;;;0.63;;
28070;SDS011;15383;48.408;9.968;2023-08-06T13:54:30;0.55;;;0.55;;
28070;SDS011;15383;48.408;9.968;2023-08-06T13:56:55;0.50;;;0.50;;
28070;SDS011;15383;48.408;9.968;2023-08-06T13:59:21;0.73;;;0.70;;
28070;SDS011;15383;48.408;9.968;2023-08-06T14:01:49;0.55;;;0.50;;
28070;SDS011;15383;48.408;9.968;2023-08-06T14:04:18;0.63;;;0.55;;
28070;SDS011;15383;48.408;9.968;2023-08-06T14:06:44;0.65;;;0.65;;
28070;SDS011;15383;48.408;9.968;2023-08-06T14:09:10;1.02;;;0.57;;
28070;SDS011;15383;48.408;9.968;2023-08-06T14:11:39;0.73;;;0.60;;
28070;SDS011;15383;48.408;9.968;2023-08-06T14:14:04;0.50;;;0.50;;
28070;SDS011;15383;48.408;9.968;2023-08-06T14:16:30;0.50;;;0.50;;
28070;SDS011;15383;48.408;9.968;2023-08-06T14:18:56;0.50;;;0.50;;
28070;SDS011;15383;48.408;9.968;2023-08-06T14:21:21;0.65;;;0.65;;
28070;SDS011;15383;48.408;9.968;2023-08-06T14:23:47;0.40;;;0.40;;
28070;SDS011;15383;48.408;9.968;2023-08-06T14:26:13;0.68;;;0.52;;
28070;SDS011;15383;48.408;9.968;2023-08-06T14:28:40;0.60;;;0.57;;
28070;SDS011;15383;48.408;9.968;2023-08-06T14:31:08;1.27;;;0.60;;
28070;SDS011;15383;48.408;9.968;2023-08-06T14:33:33;5.95;;;0.50;;
28070;SDS011;15383;48.408;9.968;2023-08-06T14:35:59;0.40;;;0.40;;
28070;SDS011;15383;48.408;9.968;2023-08-06T14:38:25;0.50;;;0.50;;
28070;SDS011;15383;48.408;9.968;2023-08-06T14:40:51;0.50;;;0.50;;
28070;SDS011;15383;48.408;9.968;2023-08-06T14:43:16;0.40;;;0.40;;
28070;SDS011;15383;48.408;9.968;2023-08-06T14:45:42;0.30;;;0.30;;
28070;SDS011;15383;48.408;9.968;2023-08-06T14:48:07;0.40;;;0.40;;
28070;SDS011;15383;48.408;9.968;2023-08-06T14:50:33;1.02;;;0.70;;
28070;SDS011;15383;48.408;9.968;2023-08-06T14:52:59;2.38;;;0.70;;
28070;SDS011;15383;48.408;9.968;2023-08-06T14:55:27;0.60;;;0.60;;
28070;SDS011;15383;48.408;9.968;2023-08-06T14:57:53;0.43;;;0.43;;
28070;SDS011;15383;48.408;9.968;2023-08-06T15:00:19;0.65;;;0.63;;
28070;SDS011;15383;48.408;9.968;2023-08-06T15:02:45;0.70;;;0.50;;
28070;SDS011;15383;48.408;9.968;2023-08-06T15:05:11;0.50;;;0.50;;
28070;SDS011;15383;48.408;9.968;2023-08-06T15:07:37;0.50;;;0.50;;
28070;SDS011;15383;48.408;9.968;2023-08-06T15:10:03;0.40;;;0.40;;
28070;SDS011;15383;48.408;9.968;2023-08-06T15:12:30;2.45;;;0.47;;
28070;SDS011;15383;48.408;9.968;2023-08-06T15:14:57;0.80;;;0.70;;
28070;SDS011;15383;48.408;9.968;2023-08-06T15:17:25;0.50;;;0.50;;
28070;SDS011;15383;48.408;9.968;2023-08-06T15:19:51;0.50;;;0.50;;
28070;SDS011;15383;48.408;9.968;2023-08-06T15:22:17;1.20;;;0.60;;